Rechercher aéroport 
image banner adimage banner adimage banner ad
image banner ad

16CL - Mother Lode Service Center

Situé à Angels Camp, United States

ICAO - 16CL, IATA -

Données fournies par Airmate  

Information générale

Coordonnées: N38°5'4" W120°32'17"
Élévation : 1560 feet MSL.
Variation magnétique : 16° East
Voir autres Aéroports à California

Données opérationnelles

Special qualification required
Heure actuelle UTC:
Heure actuelle locale:
METAR: KCPU 300015Z AUTO 33005KT 10SM CLR 38/10 A2991 RMK AO2 T03760100
Voir NOTAMs / SUP AIP / TFR affectant cet aéroport [VIEW]
Fréquences de communication: [VIEW]

Pistes:

Coordonnées de l'aéroport

Adresse: Angels Camp United States

Vue satellite de 16CL